Farmington Hills, Michigan
Current Conditions -  °F | °C
As of 7:15 AM on Friday 19 Dec 2014 (Local Time) from KVLL Reporting Station
Overcast Overcast  
Wind Chill: 22°   Ceiling: 1600
Heat Index: 28°   Visibility: 10mi
Dew Point: 21°   Wind: 6mph
Humidity: 74%   Direction: 320°NW
Pressure: 30.26"   Gusts: NA
Location:  42.4647°N, 83.3764°W
Report Text: KVLL 191215Z AUTO 32005KT 10SM OVC016 M02/M06 A3026 RMK AO2 T10211061
Loading
Personal Weather Stations






























Interactive Weather Map New forecast layout! Learn more

10-Day Weather Forecast

Advertisements
Track Severe Weather on mobile